createdAt,value
2022-07-29T00:00:35.697Z,1.52
2022-07-29T00:03:23.308Z,1.70
2022-07-29T00:06:10.748Z,1.40
2022-07-29T00:08:58.080Z,1.65
2022-07-29T00:11:45.746Z,1.70
2022-07-29T00:14:33.444Z,1.60
2022-07-29T00:17:20.724Z,1.82
2022-07-29T00:20:09.290Z,1.60
2022-07-29T00:22:56.624Z,1.77
2022-07-29T00:25:44.263Z,1.95
2022-07-29T00:28:31.466Z,1.75
2022-07-29T00:31:18.886Z,1.75
2022-07-29T00:34:07.260Z,1.95
2022-07-29T00:37:07.903Z,1.77
2022-07-29T00:39:55.491Z,2.58
2022-07-29T00:42:48.203Z,2.20
2022-07-29T00:45:35.657Z,2.12
2022-07-29T00:48:23.012Z,2.20
2022-07-29T00:51:11.221Z,2.02
2022-07-29T00:53:58.670Z,2.12
2022-07-29T00:56:46.629Z,2.22
2022-07-29T00:59:34.429Z,2.27
2022-07-29T01:02:22.795Z,2.30
2022-07-29T01:05:10.316Z,2.30
2022-07-29T01:07:59.601Z,2.10
2022-07-29T01:10:48.458Z,2.27
2022-07-29T01:13:36.630Z,2.45
2022-07-29T01:16:29.822Z,2.25
2022-07-29T01:19:31.870Z,2.40
2022-07-29T01:22:37.402Z,2.50
2022-07-29T01:25:44.630Z,2.37
2022-07-29T01:29:01.013Z,2.72
2022-07-29T01:35:09.905Z,2.60
2022-07-29T01:38:03.063Z,2.40
2022-07-29T01:41:11.385Z,2.47
2022-07-29T01:44:01.973Z,2.77
2022-07-29T01:46:55.279Z,2.70
2022-07-29T01:49:45.760Z,2.67
2022-07-29T01:52:48.470Z,2.35
2022-07-29T01:55:39.086Z,2.33
2022-07-29T01:58:28.957Z,2.60
2022-07-29T02:01:17.604Z,2.40
2022-07-29T02:04:07.111Z,2.35
2022-07-29T02:06:57.309Z,2.80
2022-07-29T02:09:47.604Z,2.30
2022-07-29T02:12:36.122Z,2.50
2022-07-29T02:15:26.629Z,2.80
2022-07-29T02:18:17.003Z,2.77
2022-07-29T02:21:05.570Z,2.10
2022-07-29T02:23:56.184Z,2.52
2022-07-29T02:26:46.515Z,2.08
2022-07-29T02:29:35.187Z,2.35
2022-07-29T02:32:25.262Z,2.37
2022-07-29T02:35:15.798Z,2.37
2022-07-29T02:38:22.679Z,2.50
2022-07-29T02:41:16.085Z,2.50
2022-07-29T02:44:15.992Z,2.55
2022-07-29T02:47:25.036Z,2.80
2022-07-29T02:50:21.166Z,2.33
2022-07-29T02:53:23.800Z,2.55
2022-07-29T02:56:14.319Z,3.05
2022-07-29T02:59:05.038Z,2.67
2022-07-29T03:01:53.523Z,3.05
2022-07-29T03:04:43.354Z,3.00
2022-07-29T03:11:19.942Z,3.33
2022-07-29T03:14:09.653Z,3.20
2022-07-29T03:16:58.359Z,2.80
2022-07-29T03:19:45.880Z,2.83
2022-07-29T03:22:33.708Z,2.98
2022-07-29T03:25:22.253Z,2.55
2022-07-29T03:28:09.828Z,3.00
2022-07-29T03:30:57.340Z,2.58
2022-07-29T03:33:44.922Z,2.95
2022-07-29T03:36:31.881Z,2.52
2022-07-29T03:39:22.731Z,2.85
2022-07-29T03:42:12.446Z,2.98
2022-07-29T03:45:02.340Z,2.70
2022-07-29T03:48:00.399Z,3.10
2022-07-29T03:50:45.196Z,3.42
2022-07-29T03:53:33.180Z,3.37
2022-07-29T03:56:23.512Z,3.70
2022-07-29T03:59:12.162Z,3.90
2022-07-29T04:02:00.849Z,4.08
2022-07-29T04:04:48.408Z,3.40
2022-07-29T04:07:35.653Z,3.77
2022-07-29T04:10:30.062Z,3.60
2022-07-29T04:13:12.798Z,3.70
2022-07-29T04:16:00.385Z,3.40
2022-07-29T04:18:47.671Z,3.20
2022-07-29T04:21:40.193Z,3.37
2022-07-29T04:24:27.753Z,3.45
2022-07-29T04:27:15.475Z,3.72
2022-07-29T04:30:02.831Z,3.85
2022-07-29T04:32:50.432Z,3.70
2022-07-29T04:35:48.206Z,3.30
2022-07-29T04:38:28.511Z,3.30
2022-07-29T04:41:15.714Z,3.60
2022-07-29T04:44:06.943Z,3.27
2022-07-29T04:46:54.687Z,3.52
2022-07-29T04:49:41.731Z,3.83
2022-07-29T04:52:29.065Z,3.35
2022-07-29T04:55:16.859Z,3.87
2022-07-29T04:58:04.672Z,3.45
2022-07-29T05:00:52.843Z,3.42
2022-07-29T05:03:39.988Z,3.70
2022-07-29T05:06:27.375Z,3.42
2022-07-29T05:09:14.729Z,3.67
2022-07-29T05:12:02.691Z,3.35
2022-07-29T05:14:50.223Z,3.10
2022-07-29T05:17:38.132Z,3.70
2022-07-29T05:20:27.453Z,3.70
2022-07-29T05:23:15.493Z,3.33
2022-07-29T05:26:03.015Z,3.50
2022-07-29T05:28:50.428Z,3.25
2022-07-29T05:31:37.740Z,2.85
2022-07-29T05:34:25.944Z,3.00
2022-07-29T05:37:14.316Z,3.10
2022-07-29T05:40:01.755Z,3.08
2022-07-29T05:42:49.586Z,3.08
2022-07-29T05:45:49.827Z,2.92
2022-07-29T05:48:26.569Z,3.47
2022-07-29T05:51:13.655Z,2.52
2022-07-29T05:54:00.638Z,2.87
2022-07-29T05:56:47.959Z,2.90
2022-07-29T05:59:39.624Z,2.92
2022-07-29T06:02:27.150Z,2.85
2022-07-29T06:05:17.265Z,2.72
2022-07-29T06:08:06.210Z,2.87
2022-07-29T06:10:53.622Z,2.65
2022-07-29T06:13:40.977Z,2.62
2022-07-29T06:16:30.239Z,2.50
2022-07-29T06:19:17.734Z,2.62
2022-07-29T06:22:05.308Z,2.98
2022-07-29T06:24:52.694Z,2.90
2022-07-29T06:27:40.263Z,2.50
2022-07-29T06:30:27.925Z,2.58
2022-07-29T06:33:20.164Z,2.37
2022-07-29T06:36:08.273Z,2.25
2022-07-29T06:38:56.006Z,2.67
2022-07-29T06:41:43.609Z,2.55
2022-07-29T06:44:34.757Z,2.92
2022-07-29T06:47:22.325Z,2.77
2022-07-29T06:50:11.787Z,2.67
2022-07-29T06:52:59.154Z,2.98
2022-07-29T06:55:46.440Z,2.67
2022-07-29T06:58:33.934Z,2.90
2022-07-29T07:01:21.577Z,2.72
2022-07-29T07:04:10.017Z,2.83
2022-07-29T07:06:57.152Z,2.65
2022-07-29T07:09:44.435Z,2.60
2022-07-29T07:12:31.803Z,2.55
2022-07-29T07:15:21.244Z,2.30
2022-07-29T07:18:08.887Z,2.72
2022-07-29T07:20:56.394Z,2.22
2022-07-29T07:23:43.929Z,2.80
2022-07-29T07:26:31.223Z,2.70
2022-07-29T07:29:18.618Z,2.27
2022-07-29T07:32:06.610Z,2.72
2022-07-29T07:34:54.728Z,2.42
2022-07-29T07:37:41.895Z,2.60
2022-07-29T07:40:29.255Z,2.95
2022-07-29T07:43:16.549Z,2.30
2022-07-29T07:46:03.757Z,2.80
2022-07-29T07:48:51.024Z,2.40
2022-07-29T07:51:39.660Z,2.25
2022-07-29T07:54:26.883Z,2.98
2022-07-29T07:57:15.288Z,2.50
2022-07-29T08:00:03.288Z,2.47
2022-07-29T08:02:51.049Z,2.00
2022-07-29T08:05:39.593Z,2.50
2022-07-29T08:08:27.072Z,2.62
2022-07-29T08:11:14.465Z,2.83
2022-07-29T08:14:02.407Z,2.42
2022-07-29T08:16:50.163Z,2.58
2022-07-29T08:19:38.444Z,2.50
2022-07-29T08:22:26.110Z,2.30
2022-07-29T08:25:13.679Z,2.60
2022-07-29T08:28:02.793Z,2.30
2022-07-29T08:30:50.030Z,2.40
2022-07-29T08:33:38.462Z,2.55
2022-07-29T08:36:25.899Z,2.47
2022-07-29T08:39:13.421Z,2.87
2022-07-29T08:42:01.236Z,2.90
2022-07-29T08:44:48.898Z,2.87
2022-07-29T08:47:37.619Z,2.90
2022-07-29T08:50:25.329Z,2.58
2022-07-29T08:53:15.554Z,2.40
2022-07-29T08:56:03.811Z,3.42
2022-07-29T08:58:52.500Z,2.80
2022-07-29T09:01:42.686Z,2.65
2022-07-29T09:04:32.931Z,2.30
2022-07-29T09:07:21.212Z,2.52
2022-07-29T09:10:09.358Z,2.50
2022-07-29T09:12:59.836Z,2.52
2022-07-29T09:15:48.156Z,2.77
2022-07-29T09:18:40.592Z,3.00
2022-07-29T09:21:48.784Z,2.40
2022-07-29T09:24:44.654Z,2.22
2022-07-29T09:27:31.656Z,2.62
2022-07-29T09:30:28.828Z,2.87
2022-07-29T09:33:09.616Z,3.10
2022-07-29T09:36:06.109Z,2.65
2022-07-29T09:39:03.936Z,2.55
2022-07-29T09:41:56.292Z,2.45
2022-07-29T09:44:49.130Z,3.12
2022-07-29T09:47:50.238Z,2.80
2022-07-29T09:50:47.910Z,3.00
2022-07-29T09:53:40.847Z,3.00
2022-07-29T09:56:42.513Z,3.05
2022-07-29T09:59:29.748Z,2.72
2022-07-29T10:02:22.164Z,3.40
2022-07-29T10:05:13.600Z,2.65
2022-07-29T10:08:01.186Z,2.72
2022-07-29T10:10:48.576Z,2.75
2022-07-29T10:13:36.134Z,2.60
2022-07-29T10:16:23.871Z,2.87
2022-07-29T10:19:11.300Z,2.62
2022-07-29T10:22:01.110Z,2.90
2022-07-29T10:24:49.145Z,2.85
2022-07-29T10:27:38.043Z,3.35
2022-07-29T10:30:27.499Z,3.00
2022-07-29T10:33:20.875Z,2.92
2022-07-29T10:36:17.557Z,2.58
2022-07-29T10:39:44.348Z,2.90
2022-07-29T10:42:34.297Z,3.08
2022-07-29T10:45:19.339Z,2.60
2022-07-29T10:48:07.997Z,3.15
2022-07-29T10:51:08.091Z,3.00
2022-07-29T10:53:55.717Z,2.95
2022-07-29T10:56:44.949Z,2.72
2022-07-29T10:59:36.362Z,2.83
2022-07-29T11:02:42.053Z,2.50
2022-07-29T11:05:39.766Z,2.80
2022-07-29T11:08:26.492Z,2.70
2022-07-29T11:11:29.722Z,2.90
2022-07-29T11:14:15.576Z,3.10
2022-07-29T11:17:06.689Z,2.55
2022-07-29T11:19:57.583Z,2.67
2022-07-29T11:22:47.378Z,2.52
2022-07-29T11:25:50.728Z,2.70
2022-07-29T11:28:25.504Z,2.87
2022-07-29T11:31:13.359Z,2.62
2022-07-29T11:34:31.298Z,2.80
2022-07-29T11:37:28.361Z,3.00
2022-07-29T11:40:12.639Z,2.70
2022-07-29T11:43:00.475Z,2.90
2022-07-29T11:45:48.478Z,2.77
2022-07-29T11:48:36.538Z,3.20
2022-07-29T11:51:32.758Z,2.90
2022-07-29T11:54:16.309Z,3.20
2022-07-29T11:57:05.291Z,2.72
2022-07-29T11:59:53.157Z,2.85
2022-07-29T12:02:43.120Z,2.83
2022-07-29T12:05:48.297Z,2.80
2022-07-29T12:08:38.916Z,2.70
2022-07-29T12:11:27.458Z,2.90
2022-07-29T12:14:32.551Z,2.80
2022-07-29T12:17:30.528Z,2.92
2022-07-29T12:20:30.050Z,2.90
2022-07-29T12:23:18.863Z,3.00
2022-07-29T12:26:10.643Z,3.02
2022-07-29T12:28:58.352Z,3.10
2022-07-29T12:31:47.772Z,3.70
2022-07-29T12:34:35.428Z,3.00
2022-07-29T12:37:40.685Z,2.90
2022-07-29T12:40:13.973Z,3.00
2022-07-29T12:43:11.944Z,3.08
2022-07-29T12:45:59.693Z,2.55
2022-07-29T12:48:47.246Z,2.83
2022-07-29T12:51:37.537Z,2.80
2022-07-29T12:54:25.450Z,2.67
2022-07-29T12:57:20.218Z,3.10
2022-07-29T13:00:11.626Z,2.95
2022-07-29T13:03:00.620Z,3.00
2022-07-29T13:05:49.573Z,3.02
2022-07-29T13:08:36.944Z,2.90
2022-07-29T13:11:32.128Z,3.00
2022-07-29T13:17:24.810Z,2.98
2022-07-29T13:20:14.939Z,3.25
2022-07-29T13:23:02.562Z,2.77
2022-07-29T13:25:49.745Z,2.95
2022-07-29T13:28:37.176Z,3.00
2022-07-29T13:31:25.618Z,2.80
2022-07-29T13:34:14.620Z,3.30
2022-07-29T13:37:01.767Z,3.45
2022-07-29T13:39:52.741Z,3.10
2022-07-29T13:42:38.389Z,4.47
2022-07-29T13:45:25.903Z,3.50
2022-07-29T13:48:15.000Z,3.08
2022-07-29T13:51:02.638Z,4.03
2022-07-29T13:53:49.965Z,3.62
2022-07-29T13:56:37.162Z,3.60
2022-07-29T13:59:24.436Z,3.10
2022-07-29T14:02:13.111Z,3.08
2022-07-29T14:05:07.650Z,3.08
2022-07-29T14:07:51.206Z,3.02
2022-07-29T14:10:38.668Z,2.83
2022-07-29T14:13:26.467Z,3.22
2022-07-29T14:16:14.307Z,2.67
2022-07-29T14:19:01.738Z,2.72
2022-07-29T14:21:49.442Z,2.67
2022-07-29T14:24:38.516Z,2.77
2022-07-29T14:27:37.685Z,3.00
2022-07-29T14:30:18.261Z,3.12
2022-07-29T14:33:05.770Z,2.95
2022-07-29T14:35:53.316Z,3.17
2022-07-29T14:38:41.476Z,3.12
2022-07-29T14:41:29.163Z,3.40
2022-07-29T14:44:16.392Z,3.10
2022-07-29T14:47:07.456Z,3.12
2022-07-29T14:49:53.442Z,3.10
2022-07-29T14:52:41.400Z,2.98
2022-07-29T14:55:28.836Z,3.05
2022-07-29T14:58:16.647Z,2.47
2022-07-29T15:01:04.241Z,2.10
2022-07-29T15:03:59.568Z,1.80
2022-07-29T15:06:46.137Z,1.50
2022-07-29T15:09:33.459Z,1.45
2022-07-29T15:12:25.265Z,1.22
2022-07-29T15:15:13.036Z,1.60
2022-07-29T15:18:00.632Z,1.45
2022-07-29T15:20:48.508Z,1.37
2022-07-29T15:23:39.534Z,1.20
2022-07-29T15:26:27.169Z,1.32
2022-07-29T15:29:15.190Z,1.30
2022-07-29T15:32:03.136Z,1.10
2022-07-29T15:34:50.572Z,1.20
2022-07-29T15:37:49.210Z,1.07
2022-07-29T15:40:27.859Z,1.12
2022-07-29T15:43:15.312Z,1.30
2022-07-29T15:46:21.758Z,1.30
2022-07-29T15:49:09.513Z,1.12
2022-07-29T15:51:59.890Z,1.10
2022-07-29T15:54:46.185Z,1.60
2022-07-29T15:57:33.621Z,1.47
2022-07-29T16:00:22.315Z,1.50
2022-07-29T16:03:09.701Z,1.60
2022-07-29T16:05:57.252Z,1.65
2022-07-29T16:08:44.903Z,1.55
2022-07-29T16:11:32.130Z,1.40
2022-07-29T16:14:19.572Z,1.70
2022-07-29T16:17:07.001Z,1.70
2022-07-29T16:19:54.439Z,1.60
2022-07-29T16:22:41.725Z,1.75
2022-07-29T16:25:50.324Z,2.25
2022-07-29T16:28:18.533Z,2.02
2022-07-29T16:31:06.020Z,1.77
2022-07-29T16:33:56.806Z,2.40
2022-07-29T16:36:47.739Z,2.80
2022-07-29T16:39:33.615Z,2.33
2022-07-29T16:42:37.011Z,2.35
2022-07-29T16:45:10.830Z,2.20
2022-07-29T16:48:00.965Z,2.15
2022-07-29T16:50:47.331Z,2.33
2022-07-29T16:53:35.436Z,2.12
2022-07-29T16:56:22.509Z,2.67
2022-07-29T16:59:09.654Z,10.10
2022-07-29T17:01:56.891Z,3.70
2022-07-29T17:04:44.291Z,8.68
2022-07-29T17:07:32.070Z,2.83
2022-07-29T17:10:20.653Z,2.47
2022-07-29T17:13:08.001Z,3.50
2022-07-29T17:16:00.514Z,3.80
2022-07-29T17:18:46.245Z,4.03
2022-07-29T17:21:34.159Z,3.98
2022-07-29T17:24:21.487Z,3.98
2022-07-29T17:27:09.019Z,4.10
2022-07-29T17:29:56.357Z,4.47
2022-07-29T17:32:43.536Z,3.87
2022-07-29T17:35:49.069Z,4.40
2022-07-29T17:38:36.463Z,4.62
2022-07-29T17:41:24.967Z,4.35
2022-07-29T17:44:12.359Z,4.60
2022-07-29T17:47:00.287Z,4.45
2022-07-29T17:49:47.915Z,4.67
2022-07-29T17:52:35.370Z,5.12
2022-07-29T17:55:30.179Z,4.87
2022-07-29T17:58:17.772Z,4.42
2022-07-29T18:01:05.701Z,5.42
2022-07-29T18:03:55.222Z,5.08
2022-07-29T18:06:41.867Z,5.50
2022-07-29T18:09:29.833Z,5.45
2022-07-29T18:12:17.434Z,5.50
2022-07-29T18:15:06.057Z,5.55
2022-07-29T18:17:57.305Z,5.40
2022-07-29T18:20:43.533Z,5.15
2022-07-29T18:23:31.323Z,4.97
2022-07-29T18:26:18.984Z,5.10
2022-07-29T18:29:06.641Z,5.35
2022-07-29T18:31:55.671Z,5.22
2022-07-29T18:34:43.169Z,5.70
2022-07-29T18:38:00.893Z,5.87
2022-07-29T18:40:26.483Z,6.15
2022-07-29T18:43:15.291Z,6.12
2022-07-29T18:46:02.675Z,6.20
2022-07-29T18:48:50.141Z,6.65
2022-07-29T18:51:37.365Z,6.03
2022-07-29T18:54:24.863Z,6.50
2022-07-29T18:57:54.211Z,6.45
2022-07-29T19:00:01.948Z,6.33
2022-07-29T19:02:49.329Z,6.15
2022-07-29T19:05:36.975Z,6.30
2022-07-29T19:08:24.685Z,6.58
2022-07-29T19:11:12.914Z,6.03
2022-07-29T19:14:00.307Z,6.20
2022-07-29T19:16:47.883Z,5.67
2022-07-29T19:19:35.364Z,5.90
2022-07-29T19:22:24.140Z,5.80
2022-07-29T19:25:11.574Z,5.85
2022-07-29T19:27:58.846Z,6.20
2022-07-29T19:30:46.556Z,5.87
2022-07-29T19:33:34.002Z,6.37
2022-07-29T19:36:21.623Z,5.85
2022-07-29T19:39:08.988Z,6.17
2022-07-29T19:41:59.191Z,6.50
2022-07-29T19:44:45.220Z,6.05
2022-07-29T19:47:32.782Z,6.42
2022-07-29T19:50:20.464Z,6.03
2022-07-29T19:53:08.597Z,5.85
2022-07-29T19:55:55.787Z,6.42
2022-07-29T19:58:43.942Z,5.95
2022-07-29T20:01:32.713Z,6.72
2022-07-29T20:04:20.049Z,7.03
2022-07-29T20:07:08.161Z,6.08
2022-07-29T20:09:55.405Z,6.67
2022-07-29T20:12:42.986Z,5.83
2022-07-29T20:15:30.294Z,6.42
2022-07-29T20:18:18.223Z,6.70
2022-07-29T20:21:05.992Z,6.85
2022-07-29T20:23:53.537Z,6.87
2022-07-29T20:26:40.869Z,7.15
2022-07-29T20:29:28.358Z,7.10
2022-07-29T20:32:15.441Z,6.42
2022-07-29T20:35:02.674Z,7.12
2022-07-29T20:37:56.074Z,6.65
2022-07-29T20:40:40.115Z,6.20
2022-07-29T20:43:27.578Z,6.67
2022-07-29T20:46:14.804Z,6.85
2022-07-29T20:49:01.995Z,6.85
2022-07-29T20:51:49.244Z,6.08
2022-07-29T20:54:37.075Z,7.10
2022-07-29T20:57:39.380Z,7.00
2022-07-29T21:00:14.059Z,6.37
2022-07-29T21:03:01.607Z,6.67
2022-07-29T21:05:48.912Z,6.87
2022-07-29T21:08:36.687Z,6.33
2022-07-29T21:11:44.346Z,6.28
2022-07-29T21:14:17.376Z,7.05
2022-07-29T21:17:10.638Z,6.53
2022-07-29T21:19:58.309Z,6.22
2022-07-29T21:22:46.290Z,6.67
2022-07-29T21:25:34.878Z,6.30
2022-07-29T21:28:30.080Z,7.10
2022-07-29T21:31:17.835Z,6.70
2022-07-29T21:34:05.337Z,6.58
2022-07-29T21:36:52.565Z,6.72
2022-07-29T21:39:40.280Z,6.40
2022-07-29T21:42:27.689Z,6.40
2022-07-29T21:45:16.315Z,6.78
2022-07-29T21:48:03.622Z,7.35
2022-07-29T21:50:52.052Z,8.08
2022-07-29T21:53:39.332Z,9.40
2022-07-29T21:56:28.002Z,9.38
2022-07-29T21:59:15.353Z,9.85
2022-07-29T22:02:02.695Z,10.00
2022-07-29T22:04:50.724Z,10.32
2022-07-29T22:07:55.817Z,10.00
2022-07-29T22:10:29.465Z,10.38
2022-07-29T22:13:17.227Z,9.88
2022-07-29T22:16:04.773Z,10.45
2022-07-29T22:18:52.037Z,10.95
2022-07-29T22:21:39.901Z,11.48
2022-07-29T22:24:27.732Z,11.12
2022-07-29T22:27:15.672Z,10.82
2022-07-29T22:30:03.239Z,10.45
2022-07-29T22:32:50.956Z,10.70
2022-07-29T22:35:38.312Z,10.63
2022-07-29T22:38:25.882Z,10.32
2022-07-29T22:41:15.653Z,10.68
2022-07-29T22:44:02.632Z,10.60
2022-07-29T22:46:49.839Z,9.23
2022-07-29T22:49:37.148Z,9.85
2022-07-29T22:52:24.674Z,9.35
2022-07-29T22:55:12.452Z,8.90
2022-07-29T22:57:59.771Z,9.60
2022-07-29T23:00:48.337Z,9.18
2022-07-29T23:03:35.650Z,9.10
2022-07-29T23:06:23.167Z,8.88
2022-07-29T23:09:10.470Z,8.33
2022-07-29T23:11:57.589Z,9.10
2022-07-29T23:14:45.115Z,8.83
2022-07-29T23:17:36.633Z,8.00
2022-07-29T23:20:21.315Z,7.92
2022-07-29T23:23:08.530Z,8.33
2022-07-29T23:25:56.884Z,8.88
2022-07-29T23:29:03.787Z,8.55
2022-07-29T23:31:51.092Z,8.97
2022-07-29T23:34:38.643Z,8.75
2022-07-29T23:37:26.816Z,8.18
2022-07-29T23:40:15.023Z,8.00
2022-07-29T23:43:02.608Z,8.80
2022-07-29T23:45:51.571Z,8.20
2022-07-29T23:48:40.529Z,8.05
2022-07-29T23:51:29.051Z,8.43
2022-07-29T23:54:16.396Z,7.87
2022-07-29T23:57:04.079Z,8.60
2022-07-29T23:59:52.787Z,8.40
